Time;durP1;ratioP1;P1;durP2;ratioP2;P2;SDS_P1;SDS_P2;PMS_P1;PMS_P2;Temp;Humidity;BMP_temperature;BMP_pressure;BME280_temperature;BME280_humidity;BME280_pressure;Samples;Min_cycle;Max_cycle;Signal;HPM_P1;HPM_P2
2021/03/10 00:02:07;;;;;;;3.40;2.85;;;23.30;27.80;;;;;;5031688;28;20029;-50
2021/03/10 00:04:33;;;;;;;2.83;2.33;;;23.20;27.70;;;;;;5015217;28;20046;-50
2021/03/10 00:06:59;;;;;;;2.95;2.38;;;23.20;27.80;;;;;;5018223;28;20104;-48
2021/03/10 00:09:25;;;;;;;2.85;2.40;;;23.20;27.70;;;;;;5035185;28;20044;-49
2021/03/10 00:11:50;;;;;;;2.60;2.38;;;23.20;27.70;;;;;;5023959;28;20056;-48
2021/03/10 00:14:16;;;;;;;3.03;2.50;;;23.20;27.80;;;;;;5031431;28;20033;-48
2021/03/10 00:16:42;;;;;;;2.65;2.42;;;23.20;27.80;;;;;;5031538;28;20041;-53
2021/03/10 00:19:07;;;;;;;3.13;2.53;;;23.20;27.80;;;;;;5030972;28;20064;-50
2021/03/10 00:21:33;;;;;;;2.72;2.40;;;23.20;27.80;;;;;;5015461;28;20032;-47
2021/03/10 00:23:59;;;;;;;3.00;2.50;;;23.20;27.80;;;;;;5029338;28;20080;-49
2021/03/10 00:26:25;;;;;;;2.55;2.20;;;23.10;27.70;;;;;;5024113;28;20029;-54
2021/03/10 00:28:50;;;;;;;3.15;2.30;;;23.10;27.70;;;;;;5015282;28;20326;-50
2021/03/10 00:31:16;;;;;;;2.55;2.13;;;23.10;27.70;;;;;;5030926;28;20041;-56
2021/03/10 00:33:42;;;;;;;3.03;2.35;;;23.10;27.70;;;;;;5034518;28;20041;-55
2021/03/10 00:36:08;;;;;;;2.88;2.30;;;23.10;27.70;;;;;;5020180;28;20053;-49
2021/03/10 00:38:34;;;;;;;2.65;2.30;;;23.10;27.80;;;;;;5033489;28;20128;-55
2021/03/10 00:40:59;;;;;;;2.45;2.00;;;23.10;27.80;;;;;;5029917;28;20179;-46
2021/03/10 00:43:25;;;;;;;3.08;2.35;;;23.10;27.80;;;;;;5022284;28;20053;-51
2021/03/10 00:45:51;;;;;;;2.45;2.20;;;23.00;27.70;;;;;;5020947;28;20042;-51
2021/03/10 00:48:19;;;;;;;2.35;2.08;;;23.10;27.80;;;;;;5033348;28;20030;-55
2021/03/10 00:50:44;;;;;;;2.33;1.98;;;23.00;27.80;;;;;;5031822;28;20392;-53
2021/03/10 00:53:11;;;;;;;2.15;1.95;;;23.00;28.30;;;;;;5033958;28;20107;-54
2021/03/10 00:55:37;;;;;;;2.38;2.17;;;23.00;27.80;;;;;;5018887;28;20088;-47
2021/03/10 00:58:03;;;;;;;2.85;1.95;;;23.00;27.80;;;;;;5014846;28;20025;-50
2021/03/10 01:00:29;;;;;;;2.67;2.08;;;23.00;27.80;;;;;;5014816;28;20100;-53
2021/03/10 01:02:54;;;;;;;3.08;1.83;;;23.00;27.80;;;;;;5022542;28;20025;-50
2021/03/10 01:05:20;;;;;;;2.20;2.00;;;23.00;27.70;;;;;;5031092;28;20112;-48
2021/03/10 01:07:46;;;;;;;3.13;2.10;;;23.00;27.70;;;;;;5027515;28;20025;-50
2021/03/10 01:10:13;;;;;;;1.92;1.73;;;22.90;27.70;;;;;;5023525;28;20029;-46
2021/03/10 01:12:39;;;;;;;2.45;1.80;;;23.00;27.70;;;;;;5033781;28;20041;-49
2021/03/10 01:15:14;;;;;;;1.98;1.77;;;22.90;27.70;;;;;;5032900;28;20089;-54
2021/03/10 01:17:40;;;;;;;2.10;1.90;;;22.90;27.70;;;;;;5031682;28;20391;-53
2021/03/10 01:20:18;;;;;;;2.10;1.88;;;22.90;27.70;;;;;;5034443;28;20033;-53
2021/03/10 01:22:45;;;;;;;2.05;1.85;;;22.90;27.70;;;;;;5019441;28;20440;-49
2021/03/10 01:25:11;;;;;;;2.08;1.80;;;22.90;27.70;;;;;;5022143;28;20030;-50
2021/03/10 01:27:38;;;;;;;2.17;1.90;;;22.90;27.70;;;;;;5022630;28;20045;-50
2021/03/10 01:30:06;;;;;;;2.10;1.70;;;22.90;27.70;;;;;;5034210;28;20037;-51
2021/03/10 01:32:32;;;;;;;2.65;1.70;;;22.80;27.60;;;;;;5031211;28;20021;-48
2021/03/10 01:34:57;;;;;;;2.97;1.92;;;22.80;27.60;;;;;;5019983;28;20348;-50
2021/03/10 01:37:23;;;;;;;2.30;1.70;;;22.80;27.60;;;;;;5016417;28;20099;-54
2021/03/10 01:39:49;;;;;;;3.08;2.03;;;22.80;27.60;;;;;;5018142;28;20083;-48
2021/03/10 01:42:15;;;;;;;1.85;1.60;;;22.80;27.60;;;;;;5034008;28;20029;-51
2021/03/10 01:44:41;;;;;;;1.90;1.63;;;22.80;27.60;;;;;;5022539;28;20041;-52
2021/03/10 01:47:08;;;;;;;2.05;1.67;;;22.80;27.60;;;;;;5034155;28;20022;-51
2021/03/10 01:49:35;;;;;;;2.08;1.63;;;22.80;27.60;;;;;;5025389;28;20022;-49
2021/03/10 01:52:01;;;;;;;2.22;1.65;;;22.80;27.60;;;;;;5032400;28;20069;-55
2021/03/10 01:54:27;;;;;;;2.10;1.85;;;22.80;28.10;;;;;;5014519;28;20184;-55
2021/03/10 01:56:53;;;;;;;2.67;1.85;;;22.80;27.60;;;;;;5031936;28;20195;-50
2021/03/10 01:59:20;;;;;;;2.03;1.83;;;22.70;27.50;;;;;;5037942;28;20422;-53
2021/03/10 02:01:46;;;;;;;1.90;1.70;;;22.80;27.60;;;;;;5030377;28;20049;-48
2021/03/10 02:04:12;;;;;;;2.22;1.92;;;22.70;27.50;;;;;;5019868;28;20116;-47
2021/03/10 02:07:04;;;;;;;2.20;1.60;;;22.70;27.50;;;;;;5025675;28;20022;-53
2021/03/10 02:09:33;;;;;;;2.35;1.65;;;22.70;27.50;;;;;;5023161;28;20065;-52
2021/03/10 02:12:15;;;;;;;2.08;1.63;;;22.70;27.50;;;;;;5017503;28;20385;-51
2021/03/10 02:14:53;;;;;;;1.67;1.58;;;22.70;28.00;;;;;;5022691;28;20026;-52
2021/03/10 02:17:25;;;;;;;1.50;1.40;;;22.70;27.50;;;;;;5020235;28;20056;-49
2021/03/10 02:20:28;;;;;;;1.52;1.42;;;22.70;27.50;;;;;;5022927;28;20181;-49
2021/03/10 02:23:31;;;;;;;2.00;1.63;;;22.70;27.50;;;;;;5036787;28;20124;-51
2021/03/10 02:26:31;;;;;;;1.92;1.55;;;22.60;27.50;;;;;;5023554;28;20141;-51
2021/03/10 02:29:18;;;;;;;2.08;1.40;;;22.60;27.50;;;;;;5026646;28;20139;-50
2021/03/10 02:31:53;;;;;;;1.70;1.50;;;22.60;27.50;;;;;;5036465;28;20037;-45
2021/03/10 02:34:19;;;;;;;1.42;1.33;;;22.60;27.50;;;;;;5025110;28;20041;-53
2021/03/10 02:36:48;;;;;;;2.20;1.75;;;22.60;27.50;;;;;;5028282;28;20033;-54
2021/03/10 02:39:16;;;;;;;1.85;1.50;;;22.60;27.50;;;;;;5031658;28;20039;-53
2021/03/10 02:41:43;;;;;;;2.20;1.65;;;22.60;27.50;;;;;;5022037;28;20069;-46
2021/03/10 02:44:12;;;;;;;2.03;1.50;;;22.60;27.40;;;;;;5020993;28;20056;-53
2021/03/10 02:46:39;;;;;;;1.38;1.17;;;22.60;27.40;;;;;;5030284;28;20052;-51
2021/03/10 02:49:07;;;;;;;1.52;1.23;;;22.50;27.40;;;;;;5032407;28;20017;-52
2021/03/10 02:51:35;;;;;;;1.50;1.38;;;22.50;27.40;;;;;;5021729;28;20038;-53
2021/03/10 02:54:02;;;;;;;1.50;1.40;;;22.50;27.40;;;;;;5026429;28;20124;-46
2021/03/10 02:56:28;;;;;;;1.58;1.27;;;22.50;27.40;;;;;;5029551;28;20040;-54
2021/03/10 02:58:55;;;;;;;1.83;1.60;;;22.50;27.40;;;;;;5028565;28;20030;-55
2021/03/10 03:01:21;;;;;;;1.67;1.38;;;22.50;27.40;;;;;;5027555;28;20052;-52
2021/03/10 03:03:47;;;;;;;1.45;1.25;;;22.50;27.40;;;;;;5035136;28;20430;-48
2021/03/10 03:06:13;;;;;;;1.40;1.25;;;22.40;27.30;;;;;;5024630;28;20059;-47
2021/03/10 03:08:39;;;;;;;1.67;1.45;;;22.50;27.40;;;;;;5019277;28;20056;-48
2021/03/10 03:11:06;;;;;;;1.45;1.30;;;22.50;27.40;;;;;;5032729;28;20033;-55
2021/03/10 03:13:33;;;;;;;1.77;1.55;;;22.50;27.40;;;;;;5035598;28;20029;-51
2021/03/10 03:16:01;;;;;;;1.55;1.45;;;22.50;27.40;;;;;;5032592;28;20029;-54
2021/03/10 03:18:28;;;;;;;1.50;1.40;;;22.40;27.30;;;;;;5021630;28;20034;-49
2021/03/10 03:20:55;;;;;;;1.60;1.33;;;22.40;27.40;;;;;;5028557;28;20022;-49
2021/03/10 03:23:24;;;;;;;1.58;1.35;;;22.40;27.40;;;;;;5032827;28;20030;-51
2021/03/10 03:25:51;;;;;;;1.58;1.42;;;22.40;27.40;;;;;;5034301;28;20141;-49
2021/03/10 03:28:23;;;;;;;1.50;1.20;;;22.40;27.40;;;;;;5019603;28;20480;-47
2021/03/10 03:30:51;;;;;;;1.92;1.40;;;22.40;27.40;;;;;;5023008;28;20041;-53
2021/03/10 03:33:20;;;;;;;1.88;1.50;;;22.40;27.40;;;;;;5035305;28;20132;-52
2021/03/10 03:35:50;;;;;;;1.60;1.50;;;22.40;27.40;;;;;;5034705;28;20021;-49
2021/03/10 03:38:16;;;;;;;1.30;1.20;;;22.40;27.40;;;;;;5035759;28;20462;-54
2021/03/10 03:40:42;;;;;;;1.40;1.13;;;22.40;27.40;;;;;;5030817;28;20030;-49
2021/03/10 03:43:09;;;;;;;1.85;1.48;;;22.40;27.40;;;;;;5016978;28;20033;-51
2021/03/10 03:45:36;;;;;;;1.90;1.60;;;22.40;27.40;;;;;;5017443;28;20121;-49
2021/03/10 03:48:03;;;;;;;1.90;1.58;;;22.40;27.40;;;;;;5027548;28;20028;-52
2021/03/10 03:50:29;;;;;;;1.50;1.40;;;22.30;27.40;;;;;;5017789;28;20041;-50
2021/03/10 03:52:55;;;;;;;1.55;1.35;;;22.40;27.50;;;;;;5033665;28;20030;-48
2021/03/10 03:55:21;;;;;;;1.65;1.55;;;22.30;27.40;;;;;;5033994;28;20104;-51
2021/03/10 03:57:48;;;;;;;1.88;1.48;;;22.30;27.50;;;;;;5016110;28;20034;-48
2021/03/10 04:00:20;;;;;;;1.70;1.27;;;22.40;27.50;;;;;;5014867;28;20033;-52
2021/03/10 04:02:46;;;;;;;1.60;1.27;;;22.30;27.50;;;;;;5034362;28;20037;-52
2021/03/10 04:05:14;;;;;;;1.70;1.52;;;22.30;27.60;;;;;;5034534;28;20472;-56
2021/03/10 04:07:57;;;;;;;1.48;1.25;;;22.30;27.60;;;;;;5035367;28;20124;-51
2021/03/10 04:10:29;;;;;;;1.60;1.35;;;22.30;27.60;;;;;;5023169;28;20053;-48
2021/03/10 04:12:55;;;;;;;1.45;1.17;;;22.30;27.60;;;;;;5024775;28;20037;-49
2021/03/10 04:15:22;;;;;;;1.40;1.23;;;22.30;27.60;;;;;;5020644;28;20048;-52
2021/03/10 04:17:49;;;;;;;1.80;1.48;;;22.30;27.60;;;;;;5023414;28;20033;-49
2021/03/10 04:20:17;;;;;;;1.98;1.65;;;22.30;27.60;;;;;;5026246;28;20436;-49
2021/03/10 04:22:43;;;;;;;1.50;1.35;;;22.30;27.60;;;;;;5033933;28;20340;-49
2021/03/10 04:25:11;;;;;;;1.55;1.45;;;22.30;27.60;;;;;;5032979;28;20447;-52
2021/03/10 04:27:37;;;;;;;1.88;1.65;;;22.30;27.60;;;;;;5029388;28;20022;-50
2021/03/10 04:30:06;;;;;;;1.70;1.45;;;22.30;27.60;;;;;;5019095;28;20026;-54
2021/03/10 04:32:32;;;;;;;1.95;1.70;;;22.20;27.60;;;;;;5019367;28;20045;-49
2021/03/10 04:34:58;;;;;;;1.67;1.30;;;22.30;27.70;;;;;;5023081;28;20033;-52
2021/03/10 04:37:24;;;;;;;1.50;1.17;;;22.30;27.70;;;;;;5020939;28;20026;-51
2021/03/10 04:39:49;;;;;;;1.58;1.40;;;22.20;27.60;;;;;;5015827;28;20022;-51
2021/03/10 04:42:15;;;;;;;1.55;1.45;;;22.20;27.60;;;;;;5015674;28;20105;-51
2021/03/10 04:44:41;;;;;;;2.10;1.52;;;22.20;27.60;;;;;;5023601;28;20037;-54
2021/03/10 04:47:07;;;;;;;1.50;1.33;;;22.20;27.70;;;;;;5030313;28;20072;-49
2021/03/10 04:49:33;;;;;;;1.23;1.05;;;22.20;27.60;;;;;;5019429;28;20548;-52
2021/03/10 04:51:59;;;;;;;1.52;1.38;;;22.20;27.60;;;;;;5017002;28;20099;-53
2021/03/10 04:54:25;;;;;;;1.40;1.27;;;22.20;27.70;;;;;;5014991;28;20026;-51
2021/03/10 04:56:51;;;;;;;1.95;1.63;;;22.20;27.60;;;;;;5030236;28;20401;-48
2021/03/10 04:59:16;;;;;;;1.70;1.35;;;22.20;27.70;;;;;;5027189;28;20034;-46
2021/03/10 05:01:42;;;;;;;1.50;1.30;;;22.20;27.70;;;;;;5026861;28;20381;-50
2021/03/10 05:04:08;;;;;;;1.98;1.58;;;22.10;27.70;;;;;;5032870;28;20061;-52
2021/03/10 05:06:34;;;;;;;1.48;1.38;;;22.20;27.70;;;;;;5031742;28;20033;-50
2021/03/10 05:09:00;;;;;;;2.20;1.60;;;22.10;27.70;;;;;;5032885;28;20060;-50
2021/03/10 05:11:26;;;;;;;1.63;1.50;;;22.10;28.20;;;;;;5034140;28;20396;-52
2021/03/10 05:13:51;;;;;;;1.38;1.15;;;22.10;27.70;;;;;;5032735;28;20083;-48
2021/03/10 05:16:17;;;;;;;1.42;1.30;;;22.10;27.70;;;;;;5026410;28;20029;-47
2021/03/10 05:18:44;;;;;;;2.20;1.73;;;22.10;27.70;;;;;;5028674;28;20030;-51
2021/03/10 05:21:10;;;;;;;1.92;1.33;;;22.10;27.70;;;;;;5029062;28;20125;-47
2021/03/10 05:23:41;;;;;;;1.88;1.40;;;22.10;27.70;;;;;;5029976;28;20405;-48
2021/03/10 05:26:10;;;;;;;1.60;1.50;;;22.10;27.70;;;;;;5032675;28;20064;-51
2021/03/10 05:28:36;;;;;;;2.08;1.60;;;22.10;27.80;;;;;;5027085;28;20339;-47
2021/03/10 05:31:02;;;;;;;1.40;1.20;;;22.10;27.80;;;;;;5022660;28;20080;-55
2021/03/10 05:33:29;;;;;;;2.00;1.48;;;22.10;27.80;;;;;;5032873;28;20088;-49
2021/03/10 05:35:54;;;;;;;2.03;1.48;;;22.10;27.80;;;;;;5020354;28;20033;-49
2021/03/10 05:38:20;;;;;;;1.75;1.48;;;22.10;27.80;;;;;;5038044;28;20099;-48
2021/03/10 05:40:46;;;;;;;2.10;1.40;;;22.10;27.90;;;;;;5035181;28;20041;-55
2021/03/10 05:43:12;;;;;;;2.00;1.25;;;22.10;27.90;;;;;;5018199;28;20029;-48
2021/03/10 05:45:38;;;;;;;2.00;1.40;;;22.10;27.90;;;;;;5018262;28;20353;-52
2021/03/10 05:48:06;;;;;;;1.85;1.30;;;22.10;27.90;;;;;;5036533;28;20041;-48
2021/03/10 05:50:32;;;;;;;2.00;1.63;;;22.00;27.90;;;;;;5036522;28;20445;-47
2021/03/10 05:52:59;;;;;;;1.50;1.33;;;22.10;27.90;;;;;;5018203;28;20026;-48
2021/03/10 05:55:26;;;;;;;1.52;1.42;;;22.10;28.00;;;;;;5020734;28;20327;-49
2021/03/10 05:57:52;;;;;;;1.65;1.40;;;22.00;27.90;;;;;;5017858;28;20449;-49
2021/03/10 06:00:18;;;;;;;2.53;1.73;;;22.00;28.00;;;;;;5029667;28;20033;-47
2021/03/10 06:02:44;;;;;;;1.70;1.58;;;22.00;28.00;;;;;;5017965;28;20418;-49
2021/03/10 06:05:23;;;;;;;1.42;1.20;;;22.00;28.00;;;;;;5028935;28;20064;-53
2021/03/10 06:08:02;;;;;;;3.13;1.35;;;22.00;28.00;;;;;;5021834;28;20416;-52
2021/03/10 06:10:36;;;;;;;2.25;1.58;;;22.00;28.00;;;;;;5018168;28;20068;-52
2021/03/10 06:13:02;;;;;;;2.60;1.55;;;22.00;28.10;;;;;;5018488;28;20128;-49
2021/03/10 06:15:39;;;;;;;1.52;1.42;;;22.00;28.10;;;;;;5023238;28;20038;-54
2021/03/10 06:18:05;;;;;;;1.65;1.50;;;22.00;28.10;;;;;;5033245;28;20026;-50
2021/03/10 06:20:32;;;;;;;1.83;1.30;;;22.00;28.10;;;;;;5032090;28;20430;-49
2021/03/10 06:22:59;;;;;;;1.73;1.33;;;22.00;28.20;;;;;;5035407;28;20033;-53
2021/03/10 06:25:34;;;;;;;1.75;1.35;;;22.00;28.20;;;;;;5028660;28;20112;-51
2021/03/10 06:28:00;;;;;;;1.73;1.48;;;22.00;28.20;;;;;;5031837;28;20033;-54
2021/03/10 06:30:42;;;;;;;2.05;1.67;;;22.00;28.20;;;;;;5037123;28;20322;-51
2021/03/10 06:33:09;;;;;;;1.60;1.38;;;22.00;28.20;;;;;;5027919;28;20114;-54
2021/03/10 06:35:37;;;;;;;1.60;1.20;;;22.00;28.30;;;;;;5029887;28;20037;-50
2021/03/10 06:38:14;;;;;;;1.35;1.13;;;22.00;28.30;;;;;;5031973;28;20040;-48
2021/03/10 06:41:06;;;;;;;2.05;1.42;;;22.00;28.30;;;;;;5032173;28;20337;-54
2021/03/10 06:43:40;;;;;;;1.90;1.45;;;22.00;28.30;;;;;;5032130;28;20041;-51
2021/03/10 06:46:19;;;;;;;3.33;1.40;;;22.00;28.30;;;;;;5017862;28;20440;-51
2021/03/10 06:48:55;;;;;;;1.58;1.48;;;21.90;28.30;;;;;;5024292;28;20033;-50
2021/03/10 06:51:21;;;;;;;1.90;1.40;;;21.90;28.30;;;;;;5016941;28;20049;-51
2021/03/10 06:53:48;;;;;;;1.70;1.30;;;21.90;28.30;;;;;;5023587;28;20035;-50
2021/03/10 06:56:18;;;;;;;1.65;1.52;;;21.90;28.40;;;;;;5016946;28;20049;-54
2021/03/10 06:58:57;;;;;;;1.90;1.27;;;21.90;28.40;;;;;;5027923;28;20048;-54
2021/03/10 07:01:25;;;;;;;2.00;1.45;;;21.90;28.40;;;;;;5028773;28;20025;-50
2021/03/10 07:03:53;;;;;;;1.80;1.38;;;21.90;28.40;;;;;;5025388;28;20099;-48
2021/03/10 07:06:20;;;;;;;1.80;1.10;;;21.90;28.40;;;;;;5018273;28;20465;-51
2021/03/10 07:08:48;;;;;;;1.60;1.50;;;21.90;28.40;;;;;;5031905;28;20627;-53
2021/03/10 07:11:14;;;;;;;2.00;1.50;;;21.90;28.40;;;;;;5016309;28;20077;-52
2021/03/10 07:13:42;;;;;;;1.52;1.20;;;21.90;28.40;;;;;;5023093;28;20038;-48
2021/03/10 07:16:09;;;;;;;1.83;1.50;;;21.90;28.50;;;;;;5025752;28;20041;-50
2021/03/10 07:18:36;;;;;;;1.50;1.40;;;21.90;28.50;;;;;;5033732;28;20026;-51
2021/03/10 07:21:03;;;;;;;1.83;1.50;;;21.90;28.50;;;;;;5036233;28;20424;-46
2021/03/10 07:23:35;;;;;;;2.00;1.67;;;21.90;28.60;;;;;;5022607;28;20509;-55
2021/03/10 07:26:03;;;;;;;1.92;1.73;;;21.90;28.60;;;;;;5020800;28;20084;-53
2021/03/10 07:28:31;;;;;;;2.08;1.88;;;21.90;28.60;;;;;;5018463;28;20033;-57
2021/03/10 07:30:57;;;;;;;3.25;1.42;;;21.90;28.60;;;;;;5035698;28;20045;-55
2021/03/10 07:33:24;;;;;;;1.70;1.60;;;21.80;28.60;;;;;;5028337;28;20302;-51
2021/03/10 07:35:59;;;;;;;2.22;1.90;;;21.80;28.70;;;;;;5017124;28;20842;-53
2021/03/10 07:38:35;;;;;;;2.22;1.90;;;21.80;28.70;;;;;;5024061;28;20044;-55
2021/03/10 07:41:07;;;;;;;2.28;1.95;;;21.80;28.80;;;;;;5035802;28;20043;-49
2021/03/10 07:43:42;;;;;;;2.20;1.70;;;21.80;28.80;;;;;;5028449;28;20440;-49
2021/03/10 07:46:37;;;;;;;2.30;1.80;;;21.80;28.80;;;;;;5029946;28;20039;-49
2021/03/10 07:49:24;;;;;;;2.67;1.65;;;21.80;28.90;;;;;;5029759;28;20123;-48
2021/03/10 07:52:10;;;;;;;2.15;1.77;;;21.80;29.10;;;;;;5036935;28;20052;-52
2021/03/10 07:54:38;;;;;;;2.67;1.70;;;21.90;29.20;;;;;;5049266;28;20514;-52
2021/03/10 07:57:11;;;;;;;3.20;1.90;;;21.90;29.40;;;;;;5046697;28;20463;-49
2021/03/10 07:59:38;;;;;;;2.60;1.85;;;22.00;29.50;;;;;;5037190;28;20048;-52
2021/03/10 08:02:07;;;;;;;2.42;1.80;;;22.00;30.00;;;;;;5036466;28;20384;-55
2021/03/10 08:04:33;;;;;;;2.20;1.80;;;22.10;29.60;;;;;;5042625;28;20422;-56
2021/03/10 08:06:59;;;;;;;3.22;1.80;;;22.20;29.60;;;;;;5033927;28;20340;-50
2021/03/10 08:09:27;;;;;;;3.05;1.90;;;22.30;29.60;;;;;;5028316;28;20041;-57
2021/03/10 08:12:04;;;;;;;2.50;2.00;;;22.40;29.60;;;;;;5026414;28;20127;-54
2021/03/10 08:14:44;;;;;;;2.35;2.08;;;22.50;29.60;;;;;;5036601;28;20032;-49
2021/03/10 08:17:21;;;;;;;2.80;1.90;;;22.70;29.60;;;;;;5038455;28;20474;-58
2021/03/10 08:20:14;;;;;;;3.47;1.88;;;22.70;29.50;;;;;;5041840;28;20021;-48
2021/03/10 08:22:40;;;;;;;2.53;2.00;;;22.90;29.50;;;;;;5031822;28;20045;-56
2021/03/10 08:25:06;;;;;;;2.42;2.15;;;23.00;29.50;;;;;;5038697;28;20029;-46
2021/03/10 08:27:37;;;;;;;2.80;2.22;;;23.10;29.50;;;;;;5047243;28;20341;-55
2021/03/10 08:30:14;;;;;;;2.88;2.17;;;23.20;29.40;;;;;;5027004;28;20041;-55
2021/03/10 08:32:40;;;;;;;2.63;2.30;;;23.30;29.30;;;;;;5021914;28;20033;-49
2021/03/10 08:35:10;;;;;;;2.67;2.20;;;23.40;29.30;;;;;;5016985;28;20396;-53
2021/03/10 08:37:37;;;;;;;2.72;2.30;;;23.60;29.20;;;;;;5015807;28;20041;-55
2021/03/10 08:40:04;;;;;;;3.55;2.85;;;23.60;29.10;;;;;;5020437;28;20021;-55
2021/03/10 08:42:30;;;;;;;3.20;2.60;;;23.80;29.00;;;;;;5028563;28;20030;-52
2021/03/10 08:44:59;;;;;;;3.70;2.78;;;23.90;28.90;;;;;;5015134;28;20122;-54
2021/03/10 08:47:26;;;;;;;2.97;2.67;;;24.00;28.70;;;;;;5015042;28;20045;-53
2021/03/10 08:49:57;;;;;;;3.05;2.60;;;24.10;28.70;;;;;;5014546;28;20038;-49
2021/03/10 08:52:24;;;;;;;3.35;2.70;;;24.20;28.60;;;;;;5019852;28;20042;-54
2021/03/10 08:54:55;;;;;;;3.35;2.70;;;24.20;28.40;;;;;;5020745;28;20095;-50
2021/03/10 08:57:25;;;;;;;3.10;2.55;;;24.30;28.40;;;;;;5013775;28;20092;-47
2021/03/10 08:59:53;;;;;;;2.55;2.35;;;24.40;28.30;;;;;;5030243;28;20464;-53
2021/03/10 09:02:34;;;;;;;2.40;2.20;;;24.50;28.30;;;;;;5031065;28;20040;-50
2021/03/10 09:05:05;;;;;;;2.67;2.42;;;24.50;28.10;;;;;;5039859;28;20076;-49
2021/03/10 09:07:32;;;;;;;3.00;2.40;;;24.60;28.10;;;;;;5046186;28;20068;-51
2021/03/10 09:10:01;;;;;;;3.85;2.67;;;24.60;28.10;;;;;;5033005;28;20025;-53
2021/03/10 09:12:29;;;;;;;3.50;2.63;;;24.70;28.00;;;;;;5035502;28;20041;-54
2021/03/10 09:15:00;;;;;;;2.90;2.60;;;24.70;28.00;;;;;;5027623;28;20443;-56
2021/03/10 09:17:35;;;;;;;2.65;2.25;;;24.70;28.00;;;;;;5031283;28;20459;-54
2021/03/10 09:20:05;;;;;;;3.13;2.42;;;24.70;28.00;;;;;;5023409;28;20030;-48
2021/03/10 09:22:46;;;;;;;2.90;2.40;;;24.70;28.00;;;;;;5012637;28;20030;-55
2021/03/10 09:25:28;;;;;;;2.67;2.30;;;24.80;28.00;;;;;;5030600;28;20039;-55
2021/03/10 09:28:09;;;;;;;2.97;2.13;;;24.80;28.00;;;;;;5030998;28;20025;-46
2021/03/10 09:30:45;;;;;;;3.03;2.50;;;24.70;27.90;;;;;;5025952;28;20092;-50
2021/03/10 09:33:22;;;;;;;2.55;2.17;;;24.80;28.00;;;;;;5032174;28;20057;-49
2021/03/10 09:35:58;;;;;;;2.60;2.35;;;24.80;27.90;;;;;;5013629;28;20038;-55
2021/03/10 09:38:33;;;;;;;3.53;2.85;;;24.70;27.80;;;;;;5026392;28;20061;-53
2021/03/10 09:41:05;;;;;;;3.72;2.70;;;24.70;27.80;;;;;;5025110;28;20029;-51
2021/03/10 09:43:35;;;;;;;2.45;2.25;;;24.70;27.80;;;;;;5014439;28;20030;-52
2021/03/10 09:46:08;;;;;;;3.08;2.50;;;24.60;27.80;;;;;;5022423;28;20025;-53
2021/03/10 09:48:37;;;;;;;2.97;2.60;;;24.60;27.80;;;;;;5022316;28;20049;-55
2021/03/10 09:51:12;;;;;;;2.58;2.28;;;24.60;27.80;;;;;;5015849;28;20468;-48
2021/03/10 09:53:45;;;;;;;2.83;2.50;;;24.60;27.80;;;;;;5011606;28;20470;-47
2021/03/10 09:56:18;;;;;;;2.55;2.35;;;24.60;27.80;;;;;;5012344;28;20080;-50
2021/03/10 09:58:50;;;;;;;3.50;2.72;;;24.60;27.80;;;;;;5022415;28;20037;-51
2021/03/10 10:01:21;;;;;;;3.28;2.90;;;24.50;27.80;;;;;;5031355;28;20029;-53
2021/03/10 10:03:48;;;;;;;2.78;2.42;;;24.50;27.80;;;;;;5025223;28;20038;-48
2021/03/10 10:06:17;;;;;;;3.38;2.75;;;24.50;27.80;;;;;;5017066;28;20041;-50
2021/03/10 10:08:46;;;;;;;2.88;2.58;;;24.50;27.80;;;;;;5006799;28;20044;-46
2021/03/10 10:11:14;;;;;;;2.80;2.35;;;24.50;27.80;;;;;;5019285;28;20045;-50
2021/03/10 10:13:41;;;;;;;3.40;2.38;;;24.50;27.80;;;;;;5014154;28;20034;-53
2021/03/10 10:16:09;;;;;;;3.10;2.70;;;24.50;27.80;;;;;;5020914;28;20042;-49
2021/03/10 10:18:35;;;;;;;2.50;2.20;;;24.50;27.80;;;;;;5029153;28;20122;-48
2021/03/10 10:21:03;;;;;;;3.00;2.60;;;24.50;27.80;;;;;;5035403;28;20029;-51
2021/03/10 10:23:30;;;;;;;2.65;2.28;;;24.50;27.80;;;;;;5035333;28;20025;-51
2021/03/10 10:26:03;;;;;;;3.33;2.50;;;24.50;27.70;;;;;;5030580;28;20029;-52
2021/03/10 10:28:33;;;;;;;2.70;2.42;;;24.50;27.80;;;;;;5035648;28;20023;-46
2021/03/10 10:30:59;;;;;;;2.53;2.10;;;24.50;27.80;;;;;;5032107;28;20458;-47
2021/03/10 10:33:26;;;;;;;3.47;2.60;;;24.40;27.70;;;;;;5029342;28;20040;-47
2021/03/10 10:35:54;;;;;;;3.08;2.47;;;24.40;27.80;;;;;;5017101;28;20030;-52
2021/03/10 10:38:20;;;;;;;3.22;2.22;;;24.40;27.80;;;;;;5020100;28;20124;-48
2021/03/10 10:40:46;;;;;;;2.92;2.30;;;24.40;27.80;;;;;;5028856;28;20072;-49
2021/03/10 10:43:14;;;;;;;2.92;2.25;;;24.40;27.80;;;;;;5034075;28;20030;-49
2021/03/10 10:45:44;;;;;;;2.78;2.10;;;24.40;27.80;;;;;;5030870;28;20435;-48
2021/03/10 10:48:11;;;;;;;3.42;2.25;;;24.30;27.80;;;;;;5037906;28;20428;-50
2021/03/10 10:51:00;;;;;;;3.63;2.22;;;24.30;27.80;;;;;;5031981;28;20049;-50
2021/03/10 10:53:38;;;;;;;3.13;2.13;;;24.30;27.80;;;;;;5022723;28;20042;-53
2021/03/10 10:56:04;;;;;;;3.75;2.28;;;24.30;27.90;;;;;;5028128;28;20168;-54
2021/03/10 10:58:30;;;;;;;2.40;2.20;;;24.30;27.90;;;;;;5025477;28;20467;-51
2021/03/10 11:00:57;;;;;;;2.30;2.00;;;24.20;27.80;;;;;;5035408;28;20415;-51
2021/03/10 11:03:23;;;;;;;2.92;2.13;;;24.20;27.90;;;;;;5021114;28;20080;-49
2021/03/10 11:05:52;;;;;;;2.85;2.33;;;24.20;27.90;;;;;;5029674;28;20067;-47
2021/03/10 11:08:21;;;;;;;2.38;1.98;;;24.20;27.90;;;;;;5033940;28;20437;-53
2021/03/10 11:10:47;;;;;;;2.85;2.00;;;24.20;27.90;;;;;;5030198;28;20088;-52
2021/03/10 11:13:13;;;;;;;2.40;2.10;;;24.10;27.80;;;;;;5035462;28;20449;-51
2021/03/10 11:15:53;;;;;;;2.58;2.22;;;24.20;27.90;;;;;;5032399;28;20321;-52
2021/03/10 11:18:52;;;;;;;2.80;2.20;;;24.10;27.90;;;;;;5010329;28;20045;-51
2021/03/10 11:21:18;;;;;;;2.72;2.25;;;24.00;27.90;;;;;;5034040;28;20044;-51
2021/03/10 11:23:43;;;;;;;2.63;2.00;;;24.00;27.90;;;;;;5025201;28;20362;-44
2021/03/10 11:26:10;;;;;;;3.20;2.20;;;24.00;28.00;;;;;;5027999;28;20391;-45
2021/03/10 11:28:36;;;;;;;2.33;2.10;;;23.90;27.90;;;;;;5026523;28;20314;-49
2021/03/10 11:31:04;;;;;;;2.10;1.83;;;23.90;27.90;;;;;;5048265;28;20071;-49
2021/03/10 11:33:34;;;;;;;2.17;1.90;;;23.90;28.00;;;;;;5019647;28;20036;-48
2021/03/10 11:36:03;;;;;;;3.05;2.08;;;23.80;27.90;;;;;;5021545;28;20056;-47
2021/03/10 11:38:30;;;;;;;2.45;1.75;;;23.80;28.00;;;;;;5032579;28;20468;-45
2021/03/10 11:40:56;;;;;;;2.42;2.05;;;23.80;28.00;;;;;;5034112;28;20029;-53
2021/03/10 11:43:22;;;;;;;2.30;2.10;;;23.80;28.00;;;;;;5032891;28;20033;-48
2021/03/10 11:45:49;;;;;;;2.08;1.77;;;23.70;28.00;;;;;;5033852;28;20479;-49
2021/03/10 11:48:15;;;;;;;3.00;2.40;;;23.70;28.00;;;;;;5033798;28;20033;-45
2021/03/10 11:50:41;;;;;;;3.00;2.30;;;23.60;28.00;;;;;;5035345;28;20045;-46
2021/03/10 11:53:08;;;;;;;3.88;2.00;;;23.60;28.00;;;;;;5023000;28;20034;-49
2021/03/10 11:55:41;;;;;;;2.67;1.90;;;23.60;28.00;;;;;;5034975;28;20093;-54
2021/03/10 11:58:07;;;;;;;2.53;2.17;;;23.60;28.00;;;;;;5020498;28;20452;-48
2021/03/10 12:00:33;;;;;;;2.67;2.17;;;23.60;28.00;;;;;;5025384;28;20041;-51
2021/03/10 12:03:06;;;;;;;3.03;2.33;;;23.50;28.00;;;;;;5030989;28;20029;-54
2021/03/10 12:05:39;;;;;;;2.42;1.80;;;23.50;28.00;;;;;;5032565;28;20119;-55
2021/03/10 12:08:05;;;;;;;2.08;1.70;;;23.50;28.00;;;;;;5028138;28;20021;-51
2021/03/10 12:10:37;;;;;;;3.78;2.20;;;23.40;28.00;;;;;;5028840;28;20033;-54
2021/03/10 12:13:04;;;;;;;2.15;1.95;;;23.40;28.00;;;;;;5028795;28;20110;-47
2021/03/10 12:15:30;;;;;;;2.28;2.08;;;23.40;28.10;;;;;;5034317;28;20033;-52
2021/03/10 12:17:56;;;;;;;3.28;2.47;;;23.50;28.20;;;;;;5034140;28;20057;-54
2021/03/10 12:20:22;;;;;;;3.80;2.17;;;23.50;28.20;;;;;;5031532;28;20101;-50
2021/03/10 12:22:48;;;;;;;2.08;1.80;;;23.50;28.20;;;;;;5026457;28;20034;-53
2021/03/10 12:25:13;;;;;;;2.38;1.98;;;23.50;28.20;;;;;;5034489;28;20049;-52
2021/03/10 12:27:39;;;;;;;2.90;2.00;;;23.50;28.20;;;;;;5033638;28;20021;-54
2021/03/10 12:30:06;;;;;;;3.92;2.03;;;23.40;28.10;;;;;;5034378;28;20361;-51
2021/03/10 12:32:35;;;;;;;2.95;2.08;;;23.50;28.10;;;;;;5032949;28;20086;-53
2021/03/10 12:35:03;;;;;;;2.42;2.00;;;23.50;28.10;;;;;;5034290;28;20396;-49
2021/03/10 12:37:29;;;;;;;2.10;1.90;;;23.50;28.10;;;;;;5034223;28;20347;-49
2021/03/10 12:39:56;;;;;;;2.58;2.30;;;23.40;28.00;;;;;;5028369;28;20021;-46
2021/03/10 12:42:22;;;;;;;2.92;2.00;;;23.40;28.00;;;;;;5032539;28;20171;-46
2021/03/10 12:44:48;;;;;;;2.10;1.90;;;23.40;28.50;;;;;;5030610;28;20120;-49
2021/03/10 12:47:14;;;;;;;2.70;2.10;;;23.40;28.10;;;;;;5033844;28;20104;-47
2021/03/10 12:49:40;;;;;;;2.75;2.38;;;23.40;28.10;;;;;;5034115;28;20080;-49
2021/03/10 12:52:07;;;;;;;2.75;1.90;;;23.40;28.20;;;;;;5034096;28;20068;-48
2021/03/10 12:54:33;;;;;;;2.17;1.70;;;23.40;28.20;;;;;;5029767;28;20044;-53
2021/03/10 12:56:59;;;;;;;3.60;2.13;;;23.40;28.70;;;;;;5030872;28;20468;-57
2021/03/10 12:59:25;;;;;;;1.95;1.63;;;23.40;28.20;;;;;;5032763;28;20352;-46